• Join FlightAware (Why Join?)
  • Login
  • US Flag GB Flag 
23:01 EDT


 

Airport Tracker/Info


-or-


 

Live Flight TrackerFlight Track Log ✈ BJS439 ✈ 27-Apr-2013 ✈ KBED - KAGS

Flight Track Log - Related Links

Times and Time Zones

All times are in EDT time to prevent confusion due to time zone crossing. See the BJS439 flight status page for this flight to view local times or setup timezone preferences in your user account.

Time Position Orientation Groundspeed Altitude Reporting Facility
EDT Latitude Longitude Course Direction KTS MPH feet Rate Location/Type
08:51 42.4667 -71.3167 236° Southwest 164 189 1,100  Level KA90
08:52 42.4500 -71.3500 236° Southwest 190 219 1,800 2,040 Climbing KA90
08:54 42.3797 -71.4733 232° Southwest 231 266 6,600 3,060 Climbing Boston Center
08:55 42.3575 -71.5831 255° West 258 297 11,200 4,140 Climbing Boston Center
08:56 42.3542 -71.6872 268° West 301 346 14,900 3,780 Climbing Boston Center
08:57 42.3258 -71.8250 254° West 338 389 18,800 3,600 Climbing Boston Center
08:58 42.2681 -71.9267 232° Southwest 346 398 22,100 3,240 Climbing Boston Center
08:59 42.1997 -72.0422 231° Southwest 373 429 25,300 3,000 Climbing Boston Center
09:00 42.1292 -72.1631 232° Southwest 395 455 28,200 2,820 Climbing Boston Center
09:01 42.0606 -72.2808 232° Southwest 400 460 31,000 2,520 Climbing Boston Center
09:02 41.9919 -72.3983 232° Southwest 400 460 33,400 2,400 Climbing Boston Center
09:03 41.9231 -72.5125 231° Southwest 400 460 35,900 1,860 Climbing Boston Center
09:04 41.8500 -72.6353 231° Southwest 394 453 37,100 1,020 Climbing Boston Center
09:05 41.7853 -72.7436 231° Southwest 402 463 38,000 900 Climbing Boston Center
09:06 41.7139 -72.8656 232° Southwest 413 475 39,000 900 Climbing Boston Center
09:07 41.6425 -72.9844 231° Southwest 413 475 39,900 900 Climbing Boston Center
09:09 41.4811 -73.2581 232° Southwest 410 472 42,000 900 Climbing New York Center
09:10 41.4100 -73.3742 231° Southwest 410 472 42,900 480 Climbing New York Center
09:11 41.3364 -73.4956 231° Southwest 420 483 43,000  Climbing New York Center
09:12 41.2606 -73.6167 230° Southwest 425 489 43,000  Level New York Center
09:13 41.1889 -73.7433 233° Southwest 425 489 43,000  Level New York Center
09:14 41.1125 -73.8694 231° Southwest 435 501 43,000  Level New York Center
09:15 41.0383 -73.9953 232° Southwest 435 501 43,000  Level New York Center
09:16 40.9619 -74.1206 231° Southwest 435 501 43,000  Level New York Center
09:17 40.8856 -74.2403 230° Southwest 435 501 43,000  Level New York Center
09:18 40.8089 -74.3653 231° Southwest 435 501 43,000  Level New York Center
09:19 40.7342 -74.4900 232° Southwest 435 501 43,000  Level New York Center
09:20 40.6594 -74.6119 231° Southwest 435 501 43,000  Level New York Center
09:21 40.5956 -74.7231 233° Southwest 441 507 43,000  Level New York Center
09:22 40.5164 -74.8386 228° Southwest 430 495 43,000  Level New York Center
09:23 40.4375 -74.9511 227° Southwest 425 489 43,000  Level New York Center
09:24 40.3586 -75.0608 227° Southwest 420 483 43,100 300 Climbing New York Center
09:25 40.2772 -75.1756 227° Southwest 426 490 43,600 480 Climbing New York Center
09:26 40.1981 -75.2872 227° Southwest 426 490 44,100 480 Climbing New York Center
09:27 40.1164 -75.4014 227° Southwest 426 490 44,600 480 Climbing New York Center
09:28 40.0369 -75.5128 227° Southwest 426 490 45,100 480 Climbing New York Center
09:29 39.9553 -75.6264 227° Southwest 426 490 45,600 480 Climbing New York Center
09:30 39.8797 -75.7375 228° Southwest 426 490 46,100 480 Climbing New York Center
09:31 39.8081 -75.8539 231° Southwest 426 490 46,600 240 Climbing New York Center
09:33 39.6542 -76.0983 231° Southwest 427 491 47,000 120 Climbing Washington Center
09:34 39.5786 -76.2136 230° Southwest 427 491 47,000  Level Washington Center
09:35 39.5072 -76.3311 232° Southwest 422 486 47,000  Level Washington Center
09:36 39.4272 -76.4458 228° Southwest 427 491 47,000  Level Washington Center
09:37 39.3514 -76.5578 229° Southwest 427 491 47,000  Level Washington Center
09:38 39.2753 -76.6775 231° Southwest 427 491 47,000  Level Washington Center
09:39 39.1992 -76.7994 231° Southwest 432 497 47,000  Level Washington Center
09:40 39.1250 -76.9161 231° Southwest 432 497 47,000  Level Washington Center
09:41 39.0486 -77.0350 230° Southwest 432 497 47,000  Level Washington Center
09:42 38.9578 -77.1344 220° Southwest 432 497 47,000  Level Washington Center
09:43 38.8647 -77.2311 219° Southwest 427 491 47,000  Level Washington Center
09:44 38.7714 -77.3358 221° Southwest 438 504 47,000  Level Washington Center
09:45 38.6803 -77.4372 221° Southwest 438 504 47,000  Level Washington Center
09:46 38.5869 -77.5386 220° Southwest 438 504 47,000  Level Washington Center
09:47 38.4958 -77.6369 220° Southwest 438 504 47,000  Level Washington Center
09:48 38.3958 -77.7428 220° Southwest 430 495 47,000  Level Washington Center
09:49 38.3128 -77.8331 220° Southwest 430 495 47,000  Level Washington Center
09:50 38.2106 -77.9436 220° Southwest 435 501 47,000  Level Washington Center
09:51 38.1189 -78.0436 221° Southwest 440 506 47,000  Level Washington Center
09:52 38.0422 -78.1231 219° Southwest 425 489 47,000  Level Washington Center
09:53 37.9356 -78.2325 219° Southwest 425 489 47,000  Level Washington Center
09:54 37.8375 -78.3264 217° Southwest 430 495 47,000  Level Washington Center
09:55 37.7503 -78.4072 216° Southwest 435 501 47,000  Level Washington Center
09:56 37.6542 -78.4981 217° Southwest 440 506 47,000  Level Washington Center
09:57 37.5539 -78.5939 217° Southwest 445 512 47,000  Level Washington Center
09:58 37.4556 -78.6842 216° Southwest 440 506 47,000  Level Washington Center
09:59 37.3550 -78.7767 216° Southwest 440 506 47,000  Level Washington Center
10:00 37.2458 -78.8792 217° Southwest 440 506 47,000  Level Washington Center
10:01 37.1453 -78.9714 216° Southwest 440 506 47,000  Level Washington Center
10:02 37.0467 -79.0633 217° Southwest 445 512 47,000  Level Washington Center
10:03 36.9461 -79.1522 215° Southwest 445 512 47,000  Level Washington Center
10:04 36.8494 -79.2439 217° Southwest 445 512 47,000  Level Washington Center
10:05 36.7592 -79.3253 216° Southwest 445 512 47,000  Level Washington Center
10:06 36.6625 -79.4189 218° Southwest 445 512 47,000 -420 Level Washington Center
10:09 36.4275 -79.6264 215° Southwest 450 518 45,800 -720 Descending Atlanta Center
10:10 36.3286 -79.7194 217° Southwest 455 524 44,700 -1,260 Descending Atlanta Center
10:11 36.2356 -79.8017 215° Southwest 444 511 43,300 -1,560 Descending Atlanta Center
10:12 36.1464 -79.8783 215° Southwest 439 505 41,600 -1,620 Descending Atlanta Center
10:13 36.0492 -79.9656 216° Southwest 439 505 40,100 -1,500 Descending Atlanta Center
10:14 35.9406 -80.0250 204° Southwest 431 496 38,600 -1,500 Descending Atlanta Center
10:15 35.8278 -80.0842 203° Southwest 431 496 37,100 -1,140 Descending Atlanta Center
10:16 35.7117 -80.1742 212° Southwest 438 504 36,400 -840 Descending Atlanta Center
10:17 35.6200 -80.2475 213° Southwest 449 517 35,500 -960 Descending Atlanta Center
10:18 35.5244 -80.3261 214° Southwest 429 494 34,500 -780 Descending Atlanta Center
10:19 35.4100 -80.4050 209° Southwest 429 494 34,000 -900 Descending Atlanta Center
10:20 35.2858 -80.4386 192° South 450 518 32,800 -1,680 Descending Atlanta Center
10:21 35.1703 -80.4867 199° South 450 518 30,700 -2,100 Descending Atlanta Center
10:22 35.0706 -80.5772 217° Southwest 440 506 28,700 -2,040 Descending Atlanta Center
10:23 34.9686 -80.6600 214° Southwest 448 516 26,700 -1,920 Descending Atlanta Center
10:24 34.8667 -80.7453 214° Southwest 448 516 24,900 -1,260 Descending Atlanta Center
10:26 34.6308 -80.9472 215° Southwest 445 512 22,500 -900 Descending Jacksonville Center
10:27 34.5361 -81.0225 213° Southwest 427 491 22,000 -300 Descending Jacksonville Center
10:28 34.4392 -81.1025 214° Southwest 427 491 22,000 -420 Level Jacksonville Center
10:29 34.3525 -81.1747 215° Southwest 420 483 21,200 -1,380 Descending Jacksonville Center
10:30 34.2556 -81.2494 213° Southwest 414 476 19,300 -1,800 Descending Jacksonville Center
10:31 34.1606 -81.3292 215° Southwest 420 483 17,700 -1,800 Descending Jacksonville Center
10:32 34.0678 -81.4086 215° Southwest 420 483 15,700 -1,980 Descending Jacksonville Center
10:33 33.9725 -81.4828 213° Southwest 420 483 13,800 -1,920 Descending Jacksonville Center
10:35 33.8221 -81.5858 215° Southwest  Level FlightAware Approximate
10:42 33.3667 -81.9500 212° Southwest  Level FlightAware Approximate
10:43 33.3699 -81.9645 212° Southwest  Level Estimated
10:44 33.3699 -81.9645 212° Southwest  Level Estimated
10:45 33.3699 -81.9645 212° Southwest  Level Estimated
10:46 33.3699 -81.9645 212° Southwest  Level Estimated
10:47 33.3699 -81.9645 212° Southwest  Level Estimated
10:48 33.3699 -81.9645 212° Southwest  Level Estimated
10:49 33.3699 -81.9645 212° Southwest  Level Estimated
10:50 33.3699 -81.9645 212° Southwest  Level Estimated